Astra — PB4187 — position and weather

sailwx.info

Track history (hours):
 
Tides and Currents Weather Stations Pressure Air Temp Water Temp Dewpoint Dewpoint Depression Visibility Wind Speed Wind Dir Waves Ship Positions

Astra

Last reported at 2017-Aug-16 16:07 UTC. Time now 2017-Aug-17 01:43 UTC.
Position N 47°39' E 007°32'.

Length 110 m.

Type: Tanker. MMSI: 244650752.

Date/timePositionNaut miles runAvg speedWind from/ knotsBaromVisibWave heightAir tempDewpointWater temp
2017-Aug-16 16:07N 47°39' E 007°32'0 1.8
2017-Aug-16 15:54N 47°39' E 007°32'3 8.4
2017-Aug-16 15:30N 47°36' E 007°35'3 6.1
2017-Aug-16 15:00N 47°33' E 007°37'1 1.9
2017-Aug-16 14:27N 47°34' E 007°38'0 0.2
2017-Aug-16 13:47N 47°33' E 007°38'0 0.0
2017-Aug-16 13:23N 47°33' E 007°38'0 0.0
2017-Aug-16 12:53N 47°33' E 007°38'0 0.0
2017-Aug-16 12:23N 47°33' E 007°38'0 0.0
2017-Aug-16 11:53N 47°33' E 007°38'0 0.0
2017-Aug-16 11:23N 47°33' E 007°38'0 0.0
2017-Aug-16 10:53N 47°33' E 007°38'0 0.0
2017-Aug-16 10:26N 47°33' E 007°38'0 0.0
2017-Aug-16 09:56N 47°33' E 007°38'0 0.0
2017-Aug-16 09:26N 47°33' E 007°38'0 0.0
2017-Aug-16 08:56N 47°33' E 007°38'0 0.0
2017-Aug-16 08:26N 47°33' E 007°38'0 0.0
2017-Aug-16 07:59N 47°33' E 007°38'0 0.0
2017-Aug-16 07:29N 47°33' E 007°38'0 0.0
2017-Aug-16 06:59N 47°33' E 007°38'0 0.0
2017-Aug-16 06:29N 47°33' E 007°38'0 0.0
2017-Aug-16 05:59N 47°33' E 007°38'0 0.0
2017-Aug-16 05:29N 47°33' E 007°38'0 0.0
2017-Aug-16 04:59N 47°33' E 007°38'0 0.2
2017-Aug-16 04:30N 47°34' E 007°38'1 1.0
2017-Aug-16 03:55N 47°34' E 007°37'2 4.0
2017-Aug-16 03:30N 47°34' E 007°35'0 0.2
2017-Aug-16 01:47N 47°35' E 007°35'0 0.0
2017-Aug-16 01:23N 47°35' E 007°35'0 0.0
2017-Aug-16 00:45N 47°35' E 007°35'1 2.4
2017-Aug-16 00:24N 47°35' E 007°35'3 6.2
2017-Aug-16 00:00N 47°38' E 007°33'3 2.2
2017-Aug-15 22:35N 47°40' E 007°31'99 4.0
2017-Aug-14 21:42N 49°12' E 008°23'1 5.0
2017-Aug-14 21:30N 49°13' E 008°23'100 3.9
2017-Aug-13 19:34N 50°42' E 007°10'2 5.1
2017-Aug-13 19:09N 50°43' E 007°07'1 5.1
2017-Aug-13 18:58N 50°44' E 007°07'2 5.0
2017-Aug-13 18:29N 50°46' E 007°04'2 5.0
2017-Aug-13 18:00N 50°48' E 007°02'3 4.4
2017-Aug-13 17:17N 50°50' E 006°59'1 4.8
2017-Aug-13 16:59N 50°51' E 007°00'3 3.8
2017-Aug-13 16:18N 50°54' E 007°02'2 4.7
2017-Aug-13 15:57N 50°54' E 006°60'3 5.4
2017-Aug-13 15:26N 50°56' E 006°58'10 4.0
2017-Aug-13 12:54N 51°06' E 006°53'2 4.9
2017-Aug-13 12:30N 51°08' E 006°51'2 4.1
2017-Aug-13 12:00N 51°10' E 006°50'2 3.8
2017-Aug-13 11:30N 51°09' E 006°48'2 4.4
2017-Aug-13 11:00N 51°11' E 006°46'2 3.7
2017-Aug-13 10:30N 51°12' E 006°44'1 2.6
2017-Aug-13 10:00N 51°13' E 006°45'2 3.6
2017-Aug-13 09:30N 51°15' E 006°45'7 4.1
2017-Aug-13 07:53N 51°21' E 006°40'1 3.4
2017-Aug-13 07:30N 51°22' E 006°40'3 5.0
2017-Aug-13 07:00N 51°23' E 006°44'2 4.8
2017-Aug-13 06:30N 51°25' E 006°44'2 4.8
2017-Aug-13 06:00N 51°28' E 006°43'2 4.0
2017-Aug-13 05:30N 51°29' E 006°41'2 3.9
2017-Aug-13 05:00N 51°31' E 006°43'2 4.9
2017-Aug-13 04:30N 51°33' E 006°41'2 3.8
2017-Aug-13 04:00N 51°35' E 006°39'2 3.9
2017-Aug-13 03:30N 51°35' E 006°36'3 5.7
2017-Aug-13 03:00N 51°38' E 006°35'2 4.0
2017-Aug-13 02:30N 51°40' E 006°34'3 5.5
2017-Aug-13 02:00N 51°40' E 006°30'3 5.7
2017-Aug-13 01:30N 51°42' E 006°28'2 4.7
2017-Aug-13 01:00N 51°44' E 006°25'2 4.1
2017-Aug-13 00:30N 51°45' E 006°22'3 5.5
2017-Aug-13 00:00N 51°47' E 006°19'3 6.3
2017-Aug-12 23:30N 51°49' E 006°16'3 5.7
2017-Aug-12 23:00N 51°50' E 006°11'3 5.9
2017-Aug-12 22:30N 51°51' E 006°07'3 5.3
2017-Aug-12 21:58N 51°52' E 006°03'0 0.0
2017-Aug-12 21:28N 51°52' E 006°03'0 0.2
2017-Aug-12 20:58N 51°52' E 006°02'2 3.8
2017-Aug-12 20:31N 51°52' E 005°60'2 4.0
2017-Aug-12 20:00N 51°52' E 005°56'3 5.4
2017-Aug-12 19:30N 51°51' E 005°52'3 5.9
2017-Aug-12 19:00N 51°53' E 005°48'3 6.3
2017-Aug-12 18:31N 51°53' E 005°43'3 6.1
2017-Aug-12 18:00N 51°54' E 005°38'3 6.3
2017-Aug-12 17:30N 51°54' E 005°33'3 6.3
2017-Aug-12 16:59N 51°53' E 005°28'3 6.2
2017-Aug-12 16:27N 51°51' E 005°25'3 6.6
2017-Aug-12 16:00N 51°48' E 005°22'9 6.2
2017-Aug-12 14:34N 51°49' E 005°07'1 7.2
2017-Aug-12 14:29N 51°49' E 005°07'3 7.0
2017-Aug-12 14:00N 51°49' E 005°01'4 8.0
2017-Aug-12 13:30N 51°50' E 004°55'4 7.7
2017-Aug-12 13:00N 51°49' E 004°49'4 7.8
2017-Aug-12 12:31N 51°49' E 004°42'3 6.1
2017-Aug-12 12:00N 51°52' E 004°39'4 7.4
2017-Aug-12 11:30N 51°54' E 004°35'3 6.1
2017-Aug-12 11:00N 51°55' E 004°30'4 7.2
2017-Aug-12 10:30N 51°54' E 004°24'2 3.6
2017-Aug-12 10:00N 51°53' E 004°21'0 0.0
2017-Aug-12 09:12N 51°53' E 004°21'0 0.0
2017-Aug-12 08:54N 51°53' E 004°21'0 0.0
2017-Aug-12 08:30N 51°53' E 004°21'0 0.0
2017-Aug-12 08:00N 51°53' E 004°21'0 0.0
2017-Aug-12 07:30N 51°53' E 004°21'0 0.0
2017-Aug-12 06:55N 51°53' E 004°21'0 0.0
2017-Aug-12 06:04N 51°53' E 004°21'0 0.0
2017-Aug-12 06:00N 51°53' E 004°21'0 0.0
2017-Aug-12 05:30N 51°53' E 004°21'0 0.0
2017-Aug-12 05:00N 51°53' E 004°21'0 0.0
2017-Aug-12 04:08N 51°53' E 004°21'0 0.0
2017-Aug-12 03:46N 51°53' E 004°21'0 0.1
2017-Aug-12 03:30N 51°53' E 004°21'2 4.7
2017-Aug-12 03:00N 51°54' E 004°25'0 0.9
2017-Aug-12 02:30N 51°55' E 004°25'0 0.0
2017-Aug-12 02:00N 51°55' E 004°25'0 0.0
2017-Aug-12 01:30N 51°55' E 004°25'0 0.0
2017-Aug-12 01:00N 51°55' E 004°25'0 0.0
2017-Aug-12 00:30N 51°55' E 004°25'0 0.0
2017-Aug-12 00:00N 51°55' E 004°25'0 0.0
2017-Aug-11 23:30N 51°55' E 004°25'0 0.0
2017-Aug-11 23:00N 51°55' E 004°25'0 0.0
2017-Aug-11 22:30N 51°55' E 004°25'0 0.0
2017-Aug-11 22:00N 51°55' E 004°25'0 0.0
2017-Aug-11 21:30N 51°55' E 004°25'0 0.0
2017-Aug-11 21:00N 51°55' E 004°25'0 0.0
2017-Aug-11 20:30N 51°55' E 004°25'0 0.0
2017-Aug-11 20:00N 51°55' E 004°25'0 0.0
2017-Aug-11 19:30N 51°55' E 004°25'0 0.0
2017-Aug-11 19:00N 51°55' E 004°25'0 0.0
2017-Aug-11 18:30N 51°55' E 004°25'0 0.0
2017-Aug-11 18:00N 51°55' E 004°25'0 0.0
2017-Aug-11 17:30N 51°55' E 004°25'0 0.0
2017-Aug-11 17:00N 51°55' E 004°25'0 0.0
2017-Aug-11 16:30N 51°55' E 004°25'0 0.0
2017-Aug-11 16:00N 51°55' E 004°25'0 0.0
2017-Aug-11 15:30N 51°55' E 004°25'0 0.0
2017-Aug-11 15:00N 51°55' E 004°25'0 0.0
2017-Aug-11 14:30N 51°55' E 004°25'4 3.7
2017-Aug-11 13:30N 51°54' E 004°31'5 9.5
2017-Aug-11 13:00N 51°52' E 004°38'4 7.1
2017-Aug-11 12:31N 51°49' E 004°39'0 0.0
2017-Aug-11 12:00N 51°49' E 004°39'0 0.0
2017-Aug-11 11:31N 51°49' E 004°39'0 0.0
2017-Aug-11 11:00N 51°49' E 004°39'0 0.0
2017-Aug-11 10:30N 51°49' E 004°39'0 0.0
2017-Aug-11 10:00N 51°49' E 004°39'0 0.0
2017-Aug-11 09:30N 51°49' E 004°39'0 0.0
2017-Aug-11 09:00N 51°49' E 004°39'0 0.0
2017-Aug-11 08:30N 51°49' E 004°39'0 0.0
2017-Aug-11 08:00N 51°49' E 004°39'0 0.0
2017-Aug-11 07:30N 51°49' E 004°39'0 0.0
2017-Aug-11 07:00N 51°49' E 004°39'2 4.9
2017-Aug-11 06:30N 51°49' E 004°43'4 8.3
2017-Aug-11 06:00N 51°49' E 004°50'4 8.5
2017-Aug-11 05:30N 51°50' E 004°57'5 9.5
2017-Aug-11 05:00N 51°50' E 005°04'710.1
2017-Aug-11 04:18N 51°49' E 005°16'3 9.6
2017-Aug-11 04:00N 51°48' E 005°20'610.3
2017-Aug-11 03:23N 51°53' E 005°27'410.7
2017-Aug-11 02:59N 51°54' E 005°34'510.9
2017-Aug-11 02:31N 51°54' E 005°42'510.7
2017-Aug-11 02:00N 51°52' E 005°50'4 8.3
2017-Aug-11 01:31N 51°52' E 005°57'4 8.2
2017-Aug-11 01:01N 51°52' E 006°04'510.5
2017-Aug-11 00:30N 51°50' E 006°11'510.2
2017-Aug-11 00:00N 51°48' E 006°19'4 8.7
2017-Aug-10 23:30N 51°45' E 006°25'4 8.3
2017-Aug-10 23:00N 51°42' E 006°28'5 8.8
2017-Aug-10 22:28N 51°40' E 006°35'4 8.8
2017-Aug-10 22:00N 51°35' E 006°36'4 7.7
2017-Aug-10 21:30N 51°34' E 006°41'4 8.2
2017-Aug-10 21:00N 51°30' E 006°42'4 8.1
2017-Aug-10 20:30N 51°26' E 006°43'5 8.6
2017-Aug-10 19:56N 51°21' E 006°39'410.0
2017-Aug-10 19:30N 51°18' E 006°44'4 8.2
2017-Aug-10 19:00N 51°14' E 006°46'3 6.9
2017-Aug-10 18:30N 51°11' E 006°44'4 8.0
2017-Aug-10 18:01N 51°09' E 006°48'3 5.8
2017-Aug-10 17:29N 51°07' E 006°53'10 8.4
2017-Aug-10 16:15N 50°58' E 006°60'2 9.3
2017-Aug-10 16:00N 50°56' E 006°58'4 7.2
2017-Aug-10 15:26N 50°52' E 007°02'3 6.8
2017-Aug-10 14:55N 50°49' E 007°02'4 9.9
2017-Aug-10 14:28N 50°45' E 007°06'104 7.6
2017-Aug-10 00:45N 49°13' E 008°23'1 0.0
2017-Aug-09 05:56N 49°12' E 008°23'1 0.0
2017-Aug-07 17:28N 49°13' E 008°23'  
Track history (hours):
 
Tides and Currents Weather Stations Pressure Air Temp Water Temp Dewpoint Dewpoint Depression Visibility Wind Speed Wind Dir Waves Ship Positions

Astra

Last reported at 2017-Aug-16 16:07 UTC. Time now 2017-Aug-17 01:43 UTC.
Position N 47°39' E 007°32'.

Length 110 m.

Type: Tanker. MMSI: 244650752.

Date/timePositionNaut miles runAvg speedWind from/ knotsBaromVisibWave heightAir tempDewpointWater temp
2017-Aug-16 16:07N 47°39' E 007°32'0 1.8
2017-Aug-16 15:54N 47°39' E 007°32'3 8.4
2017-Aug-16 15:30N 47°36' E 007°35'3 6.1
2017-Aug-16 15:00N 47°33' E 007°37'1 1.9
2017-Aug-16 14:27N 47°34' E 007°38'0 0.2
2017-Aug-16 13:47N 47°33' E 007°38'0 0.0
2017-Aug-16 13:23N 47°33' E 007°38'0 0.0
2017-Aug-16 12:53N 47°33' E 007°38'0 0.0
2017-Aug-16 12:23N 47°33' E 007°38'0 0.0
2017-Aug-16 11:53N 47°33' E 007°38'0 0.0
2017-Aug-16 11:23N 47°33' E 007°38'0 0.0
2017-Aug-16 10:53N 47°33' E 007°38'0 0.0
2017-Aug-16 10:26N 47°33' E 007°38'0 0.0
2017-Aug-16 09:56N 47°33' E 007°38'0 0.0
2017-Aug-16 09:26N 47°33' E 007°38'0 0.0
2017-Aug-16 08:56N 47°33' E 007°38'0 0.0
2017-Aug-16 08:26N 47°33' E 007°38'0 0.0
2017-Aug-16 07:59N 47°33' E 007°38'0 0.0
2017-Aug-16 07:29N 47°33' E 007°38'0 0.0
2017-Aug-16 06:59N 47°33' E 007°38'0 0.0
2017-Aug-16 06:29N 47°33' E 007°38'0 0.0
2017-Aug-16 05:59N 47°33' E 007°38'0 0.0
2017-Aug-16 05:29N 47°33' E 007°38'0 0.0
2017-Aug-16 04:59N 47°33' E 007°38'0 0.2
2017-Aug-16 04:30N 47°34' E 007°38'1 1.0
2017-Aug-16 03:55N 47°34' E 007°37'2 4.0
2017-Aug-16 03:30N 47°34' E 007°35'0 0.2
2017-Aug-16 01:47N 47°35' E 007°35'0 0.0
2017-Aug-16 01:23N 47°35' E 007°35'0 0.0
2017-Aug-16 00:45N 47°35' E 007°35'1 2.4
2017-Aug-16 00:24N 47°35' E 007°35'3 6.2
2017-Aug-16 00:00N 47°38' E 007°33'3 2.2
2017-Aug-15 22:35N 47°40' E 007°31'99 4.0
2017-Aug-14 21:42N 49°12' E 008°23'1 5.0
2017-Aug-14 21:30N 49°13' E 008°23'100 3.9
2017-Aug-13 19:34N 50°42' E 007°10'2 5.1
2017-Aug-13 19:09N 50°43' E 007°07'1 5.1
2017-Aug-13 18:58N 50°44' E 007°07'2 5.0
2017-Aug-13 18:29N 50°46' E 007°04'2 5.0
2017-Aug-13 18:00N 50°48' E 007°02'3 4.4
2017-Aug-13 17:17N 50°50' E 006°59'1 4.8
2017-Aug-13 16:59N 50°51' E 007°00'3 3.8
2017-Aug-13 16:18N 50°54' E 007°02'2 4.7
2017-Aug-13 15:57N 50°54' E 006°60'3 5.4
2017-Aug-13 15:26N 50°56' E 006°58'10 4.0
2017-Aug-13 12:54N 51°06' E 006°53'2 4.9
2017-Aug-13 12:30N 51°08' E 006°51'2 4.1
2017-Aug-13 12:00N 51°10' E 006°50'2 3.8
2017-Aug-13 11:30N 51°09' E 006°48'2 4.4
2017-Aug-13 11:00N 51°11' E 006°46'2 3.7
2017-Aug-13 10:30N 51°12' E 006°44'1 2.6
2017-Aug-13 10:00N 51°13' E 006°45'2 3.6
2017-Aug-13 09:30N 51°15' E 006°45'7 4.1
2017-Aug-13 07:53N 51°21' E 006°40'1 3.4
2017-Aug-13 07:30N 51°22' E 006°40'3 5.0
2017-Aug-13 07:00N 51°23' E 006°44'2 4.8
2017-Aug-13 06:30N 51°25' E 006°44'2 4.8
2017-Aug-13 06:00N 51°28' E 006°43'2 4.0
2017-Aug-13 05:30N 51°29' E 006°41'2 3.9
2017-Aug-13 05:00N 51°31' E 006°43'2 4.9
2017-Aug-13 04:30N 51°33' E 006°41'2 3.8
2017-Aug-13 04:00N 51°35' E 006°39'2 3.9
2017-Aug-13 03:30N 51°35' E 006°36'3 5.7
2017-Aug-13 03:00N 51°38' E 006°35'2 4.0
2017-Aug-13 02:30N 51°40' E 006°34'3 5.5
2017-Aug-13 02:00N 51°40' E 006°30'3 5.7
2017-Aug-13 01:30N 51°42' E 006°28'2 4.7
2017-Aug-13 01:00N 51°44' E 006°25'2 4.1
2017-Aug-13 00:30N 51°45' E 006°22'3 5.5
2017-Aug-13 00:00N 51°47' E 006°19'3 6.3
2017-Aug-12 23:30N 51°49' E 006°16'3 5.7
2017-Aug-12 23:00N 51°50' E 006°11'3 5.9
2017-Aug-12 22:30N 51°51' E 006°07'3 5.3
2017-Aug-12 21:58N 51°52' E 006°03'0 0.0
2017-Aug-12 21:28N 51°52' E 006°03'0 0.2
2017-Aug-12 20:58N 51°52' E 006°02'2 3.8
2017-Aug-12 20:31N 51°52' E 005°60'2 4.0
2017-Aug-12 20:00N 51°52' E 005°56'3 5.4
2017-Aug-12 19:30N 51°51' E 005°52'3 5.9
2017-Aug-12 19:00N 51°53' E 005°48'3 6.3
2017-Aug-12 18:31N 51°53' E 005°43'3 6.1
2017-Aug-12 18:00N 51°54' E 005°38'3 6.3
2017-Aug-12 17:30N 51°54' E 005°33'3 6.3
2017-Aug-12 16:59N 51°53' E 005°28'3 6.2
2017-Aug-12 16:27N 51°51' E 005°25'3 6.6
2017-Aug-12 16:00N 51°48' E 005°22'9 6.2
2017-Aug-12 14:34N 51°49' E 005°07'1 7.2
2017-Aug-12 14:29N 51°49' E 005°07'3 7.0
2017-Aug-12 14:00N 51°49' E 005°01'4 8.0
2017-Aug-12 13:30N 51°50' E 004°55'4 7.7
2017-Aug-12 13:00N 51°49' E 004°49'4 7.8
2017-Aug-12 12:31N 51°49' E 004°42'3 6.1
2017-Aug-12 12:00N 51°52' E 004°39'4 7.4
2017-Aug-12 11:30N 51°54' E 004°35'3 6.1
2017-Aug-12 11:00N 51°55' E 004°30'4 7.2
2017-Aug-12 10:30N 51°54' E 004°24'2 3.6
2017-Aug-12 10:00N 51°53' E 004°21'0 0.0
2017-Aug-12 09:12N 51°53' E 004°21'0 0.0
2017-Aug-12 08:54N 51°53' E 004°21'0 0.0
2017-Aug-12 08:30N 51°53' E 004°21'0 0.0
2017-Aug-12 08:00N 51°53' E 004°21'0 0.0
2017-Aug-12 07:30N 51°53' E 004°21'0 0.0
2017-Aug-12 06:55N 51°53' E 004°21'0 0.0
2017-Aug-12 06:04N 51°53' E 004°21'0 0.0
2017-Aug-12 06:00N 51°53' E 004°21'0 0.0
2017-Aug-12 05:30N 51°53' E 004°21'0 0.0
2017-Aug-12 05:00N 51°53' E 004°21'0 0.0
2017-Aug-12 04:08N 51°53' E 004°21'0 0.0
2017-Aug-12 03:46N 51°53' E 004°21'0 0.1
2017-Aug-12 03:30N 51°53' E 004°21'2 4.7
2017-Aug-12 03:00N 51°54' E 004°25'0 0.9
2017-Aug-12 02:30N 51°55' E 004°25'0 0.0
2017-Aug-12 02:00N 51°55' E 004°25'0 0.0
2017-Aug-12 01:30N 51°55' E 004°25'0 0.0
2017-Aug-12 01:00N 51°55' E 004°25'0 0.0
2017-Aug-12 00:30N 51°55' E 004°25'0 0.0
2017-Aug-12 00:00N 51°55' E 004°25'0 0.0
2017-Aug-11 23:30N 51°55' E 004°25'0 0.0
2017-Aug-11 23:00N 51°55' E 004°25'0 0.0
2017-Aug-11 22:30N 51°55' E 004°25'0 0.0
2017-Aug-11 22:00N 51°55' E 004°25'0 0.0
2017-Aug-11 21:30N 51°55' E 004°25'0 0.0
2017-Aug-11 21:00N 51°55' E 004°25'0 0.0
2017-Aug-11 20:30N 51°55' E 004°25'0 0.0
2017-Aug-11 20:00N 51°55' E 004°25'0 0.0
2017-Aug-11 19:30N 51°55' E 004°25'0 0.0
2017-Aug-11 19:00N 51°55' E 004°25'0 0.0
2017-Aug-11 18:30N 51°55' E 004°25'0 0.0
2017-Aug-11 18:00N 51°55' E 004°25'0 0.0
2017-Aug-11 17:30N 51°55' E 004°25'0 0.0
2017-Aug-11 17:00N 51°55' E 004°25'0 0.0
2017-Aug-11 16:30N 51°55' E 004°25'0 0.0
2017-Aug-11 16:00N 51°55' E 004°25'0 0.0
2017-Aug-11 15:30N 51°55' E 004°25'0 0.0
2017-Aug-11 15:00N 51°55' E 004°25'0 0.0
2017-Aug-11 14:30N 51°55' E 004°25'4 3.7
2017-Aug-11 13:30N 51°54' E 004°31'5 9.5
2017-Aug-11 13:00N 51°52' E 004°38'4 7.1
2017-Aug-11 12:31N 51°49' E 004°39'0 0.0
2017-Aug-11 12:00N 51°49' E 004°39'0 0.0
2017-Aug-11 11:31N 51°49' E 004°39'0 0.0
2017-Aug-11 11:00N 51°49' E 004°39'0 0.0
2017-Aug-11 10:30N 51°49' E 004°39'0 0.0
2017-Aug-11 10:00N 51°49' E 004°39'0 0.0
2017-Aug-11 09:30N 51°49' E 004°39'0 0.0
2017-Aug-11 09:00N 51°49' E 004°39'0 0.0
2017-Aug-11 08:30N 51°49' E 004°39'0 0.0
2017-Aug-11 08:00N 51°49' E 004°39'0 0.0
2017-Aug-11 07:30N 51°49' E 004°39'0 0.0
2017-Aug-11 07:00N 51°49' E 004°39'2 4.9
2017-Aug-11 06:30N 51°49' E 004°43'4 8.3
2017-Aug-11 06:00N 51°49' E 004°50'4 8.5
2017-Aug-11 05:30N 51°50' E 004°57'5 9.5
2017-Aug-11 05:00N 51°50' E 005°04'710.1
2017-Aug-11 04:18N 51°49' E 005°16'3 9.6
2017-Aug-11 04:00N 51°48' E 005°20'610.3
2017-Aug-11 03:23N 51°53' E 005°27'410.7
2017-Aug-11 02:59N 51°54' E 005°34'510.9
2017-Aug-11 02:31N 51°54' E 005°42'510.7
2017-Aug-11 02:00N 51°52' E 005°50'4 8.3
2017-Aug-11 01:31N 51°52' E 005°57'4 8.2
2017-Aug-11 01:01N 51°52' E 006°04'510.5
2017-Aug-11 00:30N 51°50' E 006°11'510.2
2017-Aug-11 00:00N 51°48' E 006°19'4 8.7
2017-Aug-10 23:30N 51°45' E 006°25'4 8.3
2017-Aug-10 23:00N 51°42' E 006°28'5 8.8
2017-Aug-10 22:28N 51°40' E 006°35'4 8.8
2017-Aug-10 22:00N 51°35' E 006°36'4 7.7
2017-Aug-10 21:30N 51°34' E 006°41'4 8.2
2017-Aug-10 21:00N 51°30' E 006°42'4 8.1
2017-Aug-10 20:30N 51°26' E 006°43'5 8.6
2017-Aug-10 19:56N 51°21' E 006°39'410.0
2017-Aug-10 19:30N 51°18' E 006°44'4 8.2
2017-Aug-10 19:00N 51°14' E 006°46'3 6.9
2017-Aug-10 18:30N 51°11' E 006°44'4 8.0
2017-Aug-10 18:01N 51°09' E 006°48'3 5.8
2017-Aug-10 17:29N 51°07' E 006°53'10 8.4
2017-Aug-10 16:15N 50°58' E 006°60'2 9.3
2017-Aug-10 16:00N 50°56' E 006°58'4 7.2
2017-Aug-10 15:26N 50°52' E 007°02'3 6.8
2017-Aug-10 14:55N 50°49' E 007°02'4 9.9
2017-Aug-10 14:28N 50°45' E 007°06'104 7.6
2017-Aug-10 00:45N 49°13' E 008°23'1 0.0
2017-Aug-09 05:56N 49°12' E 008°23'1 0.0
2017-Aug-07 17:28N 49°13' E 008°23'  

Dump ship's entire track history